Time;durP1;ratioP1;P1;durP2;ratioP2;P2;SDS_P1;SDS_P2;PMS_P1;PMS_P2;Temp;Humidity;BMP_temperature;BMP_pressure;BME280_temperature;BME280_humidity;BME280_pressure;Samples;Min_cycle;Max_cycle;Signal;HPM_P1;HPM_P2
2022/11/10 00:00:05;;;;;;;6.30;2.47;;;;;;;;;;5075389;28;20999;-66
2022/11/10 00:02:32;;;;;;;8.77;2.80;;;;;;;;;;5075206;28;20475;-65
2022/11/10 00:04:59;;;;;;;13.80;2.80;;;;;;;;;;5074806;28;20460;-66
2022/11/10 00:07:29;;;;;;;6.20;2.50;;;;;;;;;;5075063;28;20432;-65
2022/11/10 00:09:56;;;;;;;6.03;2.50;;;;;;;;;;5075175;28;20456;-66
2022/11/10 00:12:23;;;;;;;6.50;3.30;;;;;;;;;;5073819;28;20449;-65
2022/11/10 00:17:36;;;;;;;4.63;2.60;;;;;;;;;;5073744;28;20909;-66
2022/11/10 00:20:04;;;;;;;2.87;2.53;;;;;;;;;;5074104;28;20452;-66
2022/11/10 00:22:33;;;;;;;4.90;2.83;;;;;;;;;;5074213;28;20451;-66
2022/11/10 00:25:00;;;;;;;10.83;3.20;;;;;;;;;;5074637;28;20470;-66
2022/11/10 00:27:27;;;;;;;5.83;2.57;;;;;;;;;;5078039;28;20455;-66
2022/11/10 00:29:54;;;;;;;4.60;3.00;;;;;;;;;;5079714;28;20810;-66
2022/11/10 00:32:21;;;;;;;7.53;2.53;;;;;;;;;;5080299;28;20442;-67
2022/11/10 00:34:48;;;;;;;5.13;2.70;;;;;;;;;;5082102;28;20485;-65
2022/11/10 00:37:15;;;;;;;7.20;3.10;;;;;;;;;;5081357;28;20444;-66
2022/11/10 00:39:44;;;;;;;7.63;3.00;;;;;;;;;;5081273;28;20544;-66
2022/11/10 00:42:11;;;;;;;7.73;3.33;;;;;;;;;;5080256;28;20448;-66
2022/11/10 00:44:38;;;;;;;7.27;3.17;;;;;;;;;;5080682;28;20471;-66
2022/11/10 00:47:05;;;;;;;6.47;2.90;;;;;;;;;;5080073;28;20451;-66
2022/11/10 00:49:32;;;;;;;7.17;3.00;;;;;;;;;;5080309;28;20442;-67
2022/11/10 00:51:59;;;;;;;6.90;3.13;;;;;;;;;;5078576;28;21020;-66
2022/11/10 00:54:27;;;;;;;5.77;3.40;;;;;;;;;;5078794;28;20574;-66
2022/11/10 00:56:55;;;;;;;4.30;3.37;;;;;;;;;;5078920;28;20448;-66
2022/11/10 00:59:22;;;;;;;6.47;2.90;;;;;;;;;;5078436;28;20451;-67
2022/11/10 01:01:49;;;;;;;6.40;3.97;;;;;;;;;;5081013;28;20565;-66
2022/11/10 01:04:16;;;;;;;9.10;4.50;;;;;;;;;;5079222;28;20452;-66
2022/11/10 01:06:46;;;;;;;15.83;4.13;;;;;;;;;;5077481;28;20458;-66
2022/11/10 01:09:13;;;;;;;10.30;4.00;;;;;;;;;;5077438;28;20448;-66
2022/11/10 01:11:40;;;;;;;5.23;2.77;;;;;;;;;;5077818;28;20440;-67
2022/11/10 01:14:09;;;;;;;9.03;4.00;;;;;;;;;;5077627;28;20440;-66
2022/11/10 01:16:36;;;;;;;11.77;4.00;;;;;;;;;;5077994;28;20552;-66
2022/11/10 01:19:04;;;;;;;9.47;4.10;;;;;;;;;;5077605;28;20451;-66
2022/11/10 01:21:31;;;;;;;10.13;4.20;;;;;;;;;;5077223;28;20441;-66
2022/11/10 01:23:58;;;;;;;7.13;4.07;;;;;;;;;;5077344;28;20840;-67
2022/11/10 01:26:25;;;;;;;7.03;4.27;;;;;;;;;;5077745;28;20472;-66
2022/11/10 01:28:52;;;;;;;8.90;5.90;;;;;;;;;;5077084;28;20819;-66
2022/11/10 01:31:22;;;;;;;7.83;4.30;;;;;;;;;;5077362;28;20514;-66
2022/11/10 01:33:49;;;;;;;8.87;5.03;;;;;;;;;;5077283;28;20445;-65
2022/11/10 01:36:16;;;;;;;8.20;5.47;;;;;;;;;;5076588;28;20485;-66
2022/11/10 01:38:43;;;;;;;5.37;4.80;;;;;;;;;;5076127;28;20440;-66
2022/11/10 01:41:11;;;;;;;9.00;4.47;;;;;;;;;;5076799;28;20445;-66
2022/11/10 01:43:38;;;;;;;6.87;4.70;;;;;;;;;;5076785;28;20450;-67
2022/11/10 01:46:06;;;;;;;12.53;5.20;;;;;;;;;;5077245;28;20475;-66
2022/11/10 01:48:37;;;;;;;6.63;4.57;;;;;;;;;;5076159;28;20445;-66
2022/11/10 01:51:06;;;;;;;10.17;5.17;;;;;;;;;;5075736;28;20440;-66
2022/11/10 01:53:35;;;;;;;7.73;5.13;;;;;;;;;;5075680;28;20449;-66
2022/11/10 01:56:03;;;;;;;10.40;5.60;;;;;;;;;;5075512;28;20491;-66
2022/11/10 01:58:32;;;;;;;7.40;5.47;;;;;;;;;;5075738;28;20448;-66
2022/11/10 02:00:59;;;;;;;9.10;5.40;;;;;;;;;;5075664;28;20442;-65
2022/11/10 02:03:39;;;;;;;11.60;5.67;;;;;;;;;;5075730;28;20447;-66
2022/11/10 02:06:08;;;;;;;6.33;5.73;;;;;;;;;;5075425;28;20467;-66
2022/11/10 02:08:36;;;;;;;10.03;5.53;;;;;;;;;;5075419;28;20821;-66
2022/11/10 02:11:03;;;;;;;10.50;5.50;;;;;;;;;;5075537;28;20451;-67
2022/11/10 02:13:30;;;;;;;12.63;6.10;;;;;;;;;;5075489;28;20457;-66
2022/11/10 02:15:57;;;;;;;9.37;6.03;;;;;;;;;;5075478;28;20530;-66
2022/11/10 02:18:24;;;;;;;9.13;5.73;;;;;;;;;;5075479;28;20447;-67
2022/11/10 02:20:52;;;;;;;8.07;4.73;;;;;;;;;;5076039;28;20445;-66
2022/11/10 02:23:38;;;;;;;6.50;5.80;;;;;;;;;;5075462;28;20450;-65
2022/11/10 02:26:06;;;;;;;15.27;6.63;;;;;;;;;;5075019;28;20233;-66
2022/11/10 02:28:34;;;;;;;8.93;5.30;;;;;;;;;;5075559;28;20209;-66
2022/11/10 02:31:01;;;;;;;10.17;6.70;;;;;;;;;;5075255;28;20202;-66
2022/11/10 02:33:28;;;;;;;9.85;6.97;;;;;;;;;;5076164;28;20452;-66
2022/11/10 02:35:57;;;;;;;10.07;6.20;;;;;;;;;;5074983;28;20228;-66
2022/11/10 02:38:24;;;;;;;10.00;6.40;;;;;;;;;;5075179;28;20944;-66
2022/11/10 02:40:51;;;;;;;10.05;6.03;;;;;;;;;;5076254;28;20449;-66
2022/11/10 02:43:18;;;;;;;8.33;5.63;;;;;;;;;;5075220;28;20206;-66
2022/11/10 02:45:46;;;;;;;10.70;6.60;;;;;;;;;;5076604;28;20466;-66
2022/11/10 02:48:14;;;;;;;7.20;6.13;;;;;;;;;;5075594;28;20469;-66
2022/11/10 02:50:41;;;;;;;8.17;6.93;;;;;;;;;;5074844;28;20452;-66
2022/11/10 02:53:10;;;;;;;9.05;6.70;;;;;;;;;;5074777;28;20444;-65
2022/11/10 02:55:37;;;;;;;16.67;7.00;;;;;;;;;;5074493;28;20233;-66
2022/11/10 02:58:04;;;;;;;8.57;6.60;;;;;;;;;;5074827;28;20440;-66
2022/11/10 03:00:31;;;;;;;19.33;6.65;;;;;;;;;;5074411;28;20451;-67
2022/11/10 03:03:00;;;;;;;9.65;7.60;;;;;;;;;;5074703;28;20213;-68
2022/11/10 03:05:27;;;;;;;8.48;6.70;;;;;;;;;;5074916;28;20229;-67
2022/11/10 03:07:55;;;;;;;11.07;7.65;;;;;;;;;;5075035;28;20225;-66
2022/11/10 03:10:23;;;;;;;13.77;8.05;;;;;;;;;;5074775;28;20253;-66
2022/11/10 03:12:54;;;;;;;13.00;8.20;;;;;;;;;;5074095;28;20202;-66
2022/11/10 03:15:21;;;;;;;13.38;7.07;;;;;;;;;;5075021;28;20219;-66
2022/11/10 03:17:48;;;;;;;12.98;6.82;;;;;;;;;;5074074;28;20200;-66
2022/11/10 03:20:15;;;;;;;9.25;6.75;;;;;;;;;;5073746;28;20690;-67
2022/11/10 03:22:42;;;;;;;10.32;7.40;;;;;;;;;;5074256;28;20211;-67
2022/11/10 03:25:10;;;;;;;14.52;8.48;;;;;;;;;;5073813;28;20313;-66
2022/11/10 03:27:39;;;;;;;10.10;7.35;;;;;;;;;;5073809;28;20219;-66
2022/11/10 03:30:07;;;;;;;9.18;6.95;;;;;;;;;;5073895;28;20202;-65
2022/11/10 03:32:34;;;;;;;8.50;7.70;;;;;;;;;;5073670;28;20217;-65
2022/11/10 03:35:01;;;;;;;10.25;8.60;;;;;;;;;;5077466;28;20225;-65
2022/11/10 03:37:28;;;;;;;14.20;7.57;;;;;;;;;;5074092;28;20214;-67
2022/11/10 03:39:55;;;;;;;14.40;8.00;;;;;;;;;;5074005;28;20204;-66
2022/11/10 03:42:22;;;;;;;9.30;7.55;;;;;;;;;;5073478;28;20206;-66
2022/11/10 03:44:51;;;;;;;15.43;7.88;;;;;;;;;;5073467;28;20226;-66
2022/11/10 03:47:18;;;;;;;20.67;9.82;;;;;;;;;;5073306;28;20666;-66
2022/11/10 03:49:45;;;;;;;13.73;8.98;;;;;;;;;;5073802;28;20211;-65
2022/11/10 03:52:12;;;;;;;11.07;8.68;;;;;;;;;;5074058;28;20208;-66
2022/11/10 03:54:39;;;;;;;9.27;8.03;;;;;;;;;;5073567;28;20240;-66
2022/11/10 03:57:06;;;;;;;20.15;8.55;;;;;;;;;;5073869;28;20217;-66
2022/11/10 03:59:33;;;;;;;15.23;9.27;;;;;;;;;;5073636;28;20206;-66
2022/11/10 04:02:02;;;;;;;13.07;9.02;;;;;;;;;;5072972;28;20204;-66
2022/11/10 04:10:36;;;;;;;16.70;9.13;;;;;;;;;;5109616;27;20557;-66
2022/11/10 04:15:47;;;;;;;13.43;9.32;;;;;;;;;;5007548;28;20601;-65
2022/11/10 04:18:23;;;;;;;11.50;9.43;;;;;;;;;;5007580;28;20235;-66
2022/11/10 04:20:50;;;;;;;15.75;9.93;;;;;;;;;;5045821;23;20229;-65
2022/11/10 04:23:27;;;;;;;11.55;10.35;;;;;;;;;;5074127;28;20206;-65
2022/11/10 04:28:41;;;;;;;16.85;11.32;;;;;;;;;;5072082;28;20216;-65
2022/11/10 04:31:09;;;;;;;12.80;10.90;;;;;;;;;;5070912;28;20218;-66
2022/11/10 04:33:36;;;;;;;16.20;10.60;;;;;;;;;;5070587;28;20228;-65
2022/11/10 04:36:03;;;;;;;20.52;11.45;;;;;;;;;;5070565;28;20227;-66
2022/11/10 04:38:31;;;;;;;14.18;11.30;;;;;;;;;;5070527;28;20207;-65
2022/11/10 04:40:59;;;;;;;20.38;11.98;;;;;;;;;;5070920;28;20222;-66
2022/11/10 04:43:26;;;;;;;16.85;10.50;;;;;;;;;;5071359;28;20206;-65
2022/11/10 04:45:53;;;;;;;18.30;11.77;;;;;;;;;;5070974;28;20206;-65
2022/11/10 04:48:20;;;;;;;17.65;11.27;;;;;;;;;;5070938;28;20206;-65
2022/11/10 04:50:48;;;;;;;18.13;9.98;;;;;;;;;;5070874;28;20227;-66
2022/11/10 04:53:15;;;;;;;13.35;10.82;;;;;;;;;;5071190;28;20211;-66
2022/11/10 04:55:43;;;;;;;17.17;11.40;;;;;;;;;;5070466;28;20232;-65
2022/11/10 04:58:11;;;;;;;16.48;12.07;;;;;;;;;;5069814;28;20204;-66
2022/11/10 05:00:39;;;;;;;14.27;11.52;;;;;;;;;;5069728;28;20320;-64
2022/11/10 05:03:07;;;;;;;18.83;12.63;;;;;;;;;;5069669;28;20208;-65
2022/11/10 05:05:34;;;;;;;18.58;12.80;;;;;;;;;;5069513;28;20210;-65
2022/11/10 05:08:01;;;;;;;19.15;12.77;;;;;;;;;;5069565;28;20219;-65
2022/11/10 05:10:28;;;;;;;15.20;12.45;;;;;;;;;;5069895;28;20235;-66
2022/11/10 05:12:56;;;;;;;20.08;12.65;;;;;;;;;;5070442;28;20215;-65
2022/11/10 05:15:25;;;;;;;17.17;12.10;;;;;;;;;;5069740;28;20222;-65
2022/11/10 05:17:53;;;;;;;13.93;12.63;;;;;;;;;;5069652;28;20680;-65
2022/11/10 05:20:21;;;;;;;18.70;11.65;;;;;;;;;;5064328;28;20310;-65
2022/11/10 05:25:30;;;;;;;16.98;11.82;;;;;;;;;;5054375;28;20635;-65
2022/11/10 05:27:57;;;;;;;14.23;12.38;;;;;;;;;;5056053;28;20202;-65
2022/11/10 05:30:25;;;;;;;23.77;13.20;;;;;;;;;;5055569;28;20233;-65
2022/11/10 05:32:52;;;;;;;15.35;12.43;;;;;;;;;;5056812;28;20212;-65
2022/11/10 05:35:20;;;;;;;19.15;12.18;;;;;;;;;;5057008;28;20215;-65
2022/11/10 05:40:50;;;;;;;15.77;13.35;;;;;;;;;;5045839;28;20208;-65
2022/11/10 05:43:17;;;;;;;14.73;12.20;;;;;;;;;;5056025;28;20575;-65
2022/11/10 05:45:45;;;;;;;18.08;12.13;;;;;;;;;;5057055;28;20214;-66
2022/11/10 05:48:12;;;;;;;16.30;12.80;;;;;;;;;;5057830;28;20205;-66
2022/11/10 05:50:39;;;;;;;18.33;12.43;;;;;;;;;;5059202;28;20234;-66
2022/11/10 05:53:07;;;;;;;20.60;13.75;;;;;;;;;;5058136;28;20576;-64
2022/11/10 05:55:34;;;;;;;16.48;12.15;;;;;;;;;;5056762;28;20576;-66
2022/11/10 05:58:01;;;;;;;18.77;13.55;;;;;;;;;;5056001;28;20228;-65
2022/11/10 06:00:29;;;;;;;22.60;13.85;;;;;;;;;;5055403;28;20212;-66
2022/11/10 06:03:01;;;;;;;17.63;12.93;;;;;;;;;;5055661;28;20205;-65
2022/11/10 06:05:29;;;;;;;20.20;12.38;;;;;;;;;;5054884;28;20207;-65
2022/11/10 06:07:56;;;;;;;18.73;14.07;;;;;;;;;;5054801;28;20214;-65
2022/11/10 06:10:24;;;;;;;22.05;13.57;;;;;;;;;;5055196;28;20483;-66
2022/11/10 06:12:51;;;;;;;25.35;13.82;;;;;;;;;;5055611;28;20209;-64
2022/11/10 06:15:18;;;;;;;22.20;12.80;;;;;;;;;;5055954;28;20262;-65
2022/11/10 06:17:45;;;;;;;24.60;13.77;;;;;;;;;;5055388;28;20449;-65
2022/11/10 06:20:15;;;;;;;25.00;13.73;;;;;;;;;;5055388;28;20437;-65
2022/11/10 06:22:43;;;;;;;18.13;14.23;;;;;;;;;;5056204;28;20607;-65
2022/11/10 06:25:10;;;;;;;16.17;13.30;;;;;;;;;;5056041;28;20198;-67
2022/11/10 06:27:38;;;;;;;21.52;13.75;;;;;;;;;;5056240;28;20210;-68
2022/11/10 06:30:05;;;;;;;17.25;12.95;;;;;;;;;;5056639;28;20222;-66
2022/11/10 06:32:34;;;;;;;17.60;12.88;;;;;;;;;;5054083;28;20719;-67
2022/11/10 06:35:01;;;;;;;15.80;13.15;;;;;;;;;;5055699;28;20206;-67
2022/11/10 06:37:29;;;;;;;20.03;13.90;;;;;;;;;;5055119;28;20579;-66
2022/11/10 06:39:56;;;;;;;16.90;12.60;;;;;;;;;;5054798;28;20452;-64
2022/11/10 06:42:23;;;;;;;21.25;13.30;;;;;;;;;;5054462;28;20222;-69
2022/11/10 06:44:50;;;;;;;16.88;13.45;;;;;;;;;;5055697;28;20214;-66
2022/11/10 06:47:18;;;;;;;14.15;12.40;;;;;;;;;;5056011;28;20212;-65
2022/11/10 06:52:26;;;;;;;21.08;13.43;;;;;;;;;;5053574;28;20311;-65
2022/11/10 06:54:55;;;;;;;27.80;14.80;;;;;;;;;;5054674;28;20209;-65
2022/11/10 06:57:22;;;;;;;17.13;12.50;;;;;;;;;;5054478;28;20450;-65
2022/11/10 06:59:49;;;;;;;16.40;13.77;;;;;;;;;;5054689;28;20199;-66
2022/11/10 07:02:16;;;;;;;19.67;13.85;;;;;;;;;;5054649;28;20219;-66
2022/11/10 07:04:43;;;;;;;17.50;12.93;;;;;;;;;;5053832;28;20663;-66
2022/11/10 07:07:11;;;;;;;19.70;12.00;;;;;;;;;;5054080;28;20586;-66
2022/11/10 07:09:41;;;;;;;20.38;12.05;;;;;;;;;;5053822;28;20487;-66
2022/11/10 07:12:09;;;;;;;16.35;12.10;;;;;;;;;;5054191;28;20300;-67
2022/11/10 07:14:36;;;;;;;15.70;12.52;;;;;;;;;;5053842;28;20694;-65
2022/11/10 07:17:03;;;;;;;18.97;12.67;;;;;;;;;;5054358;28;20207;-65
2022/11/10 07:19:31;;;;;;;16.65;11.23;;;;;;;;;;5054306;28;20448;-66
2022/11/10 07:21:58;;;;;;;16.40;11.90;;;;;;;;;;5054348;28;20241;-66
2022/11/10 07:24:29;;;;;;;21.30;12.40;;;;;;;;;;5055222;28;20667;-66
2022/11/10 07:26:56;;;;;;;15.05;11.40;;;;;;;;;;5057619;28;20850;-68
2022/11/10 07:29:24;;;;;;;13.57;12.20;;;;;;;;;;5053614;28;20233;-66
2022/11/10 07:31:51;;;;;;;16.30;11.50;;;;;;;;;;5053483;28;20227;-66
2022/11/10 07:34:19;;;;;;;15.80;12.67;;;;;;;;;;5053490;28;20525;-66
2022/11/10 07:36:46;;;;;;;15.13;10.63;;;;;;;;;;5053573;28;20445;-66
2022/11/10 07:39:13;;;;;;;22.47;11.47;;;;;;;;;;5053659;28;20450;-66
2022/11/10 07:41:40;;;;;;;17.23;10.53;;;;;;;;;;5053720;28;20473;-67
2022/11/10 07:44:07;;;;;;;13.53;10.10;;;;;;;;;;5052990;28;20445;-66
2022/11/10 07:46:36;;;;;;;17.30;10.67;;;;;;;;;;5053062;28;20451;-67
2022/11/10 07:49:07;;;;;;;16.63;11.03;;;;;;;;;;5052836;28;20828;-67
2022/11/10 07:51:34;;;;;;;12.63;10.20;;;;;;;;;;5053409;28;20469;-67
2022/11/10 07:54:01;;;;;;;15.70;11.57;;;;;;;;;;5054556;28;20466;-67
2022/11/10 07:56:28;;;;;;;13.90;10.10;;;;;;;;;;5053217;28;20459;-67
2022/11/10 07:58:55;;;;;;;14.73;10.20;;;;;;;;;;5053272;28;20946;-67
2022/11/10 08:01:25;;;;;;;22.10;10.27;;;;;;;;;;5053626;28;20596;-69
2022/11/10 08:03:58;;;;;;;12.67;9.60;;;;;;;;;;5053164;28;20966;-70
2022/11/10 08:06:25;;;;;;;12.27;9.67;;;;;;;;;;5053998;28;20450;-68
2022/11/10 08:08:54;;;;;;;16.50;10.63;;;;;;;;;;5053157;28;20934;-69
2022/11/10 08:11:23;;;;;;;17.23;9.90;;;;;;;;;;5052981;28;20571;-68
2022/11/10 08:13:54;;;;;;;16.33;11.27;;;;;;;;;;5053251;28;20445;-69
2022/11/10 08:16:21;;;;;;;12.47;9.00;;;;;;;;;;5052740;28;20456;-67
2022/11/10 08:18:48;;;;;;;20.73;10.60;;;;;;;;;;5052632;28;20446;-66
2022/11/10 08:21:16;;;;;;;18.87;9.53;;;;;;;;;;5051769;28;20489;-65
2022/11/10 08:23:43;;;;;;;18.97;10.37;;;;;;;;;;5052690;28;20447;-66
2022/11/10 08:26:10;;;;;;;23.60;11.17;;;;;;;;;;5052630;28;20454;-69
2022/11/10 08:28:37;;;;;;;15.90;10.40;;;;;;;;;;5052495;28;20451;-67
2022/11/10 08:31:04;;;;;;;9.70;7.40;;;;;;;;;;5052037;28;21005;-67
2022/11/10 08:33:31;;;;;;;16.40;8.97;;;;;;;;;;5052573;28;20797;-66
2022/11/10 08:36:01;;;;;;;13.43;8.63;;;;;;;;;;5052056;28;20798;-69
2022/11/10 08:38:29;;;;;;;14.97;9.20;;;;;;;;;;5052396;28;20945;-68
2022/11/10 08:40:57;;;;;;;13.37;8.00;;;;;;;;;;5052195;28;20914;-65
2022/11/10 08:43:24;;;;;;;12.30;8.90;;;;;;;;;;5052574;28;20444;-64
2022/11/10 08:45:54;;;;;;;15.30;9.90;;;;;;;;;;5052155;28;20462;-69
2022/11/10 08:48:21;;;;;;;14.97;9.13;;;;;;;;;;5052755;28;20437;-67
2022/11/10 08:50:52;;;;;;;13.73;8.90;;;;;;;;;;5052242;28;20488;-66
2022/11/10 08:53:20;;;;;;;13.83;8.90;;;;;;;;;;5052535;28;20471;-67
2022/11/10 08:55:48;;;;;;;14.83;9.90;;;;;;;;;;5053670;28;20451;-68
2022/11/10 08:58:17;;;;;;;11.57;9.13;;;;;;;;;;5056132;28;20449;-67
2022/11/10 09:00:44;;;;;;;14.37;9.53;;;;;;;;;;5055790;28;20482;-66
2022/11/10 09:03:12;;;;;;;15.90;9.60;;;;;;;;;;5055919;28;20817;-67
2022/11/10 09:05:40;;;;;;;12.03;9.47;;;;;;;;;;5056247;28;20830;-68
2022/11/10 09:08:07;;;;;;;11.00;9.40;;;;;;;;;;5056115;28;20798;-66
2022/11/10 09:10:35;;;;;;;13.53;8.70;;;;;;;;;;5056023;28;20480;-68
2022/11/10 09:13:06;;;;;;;11.30;8.70;;;;;;;;;;5055790;28;20827;-67
2022/11/10 09:15:33;;;;;;;10.43;9.43;;;;;;;;;;5056110;28;20454;-66
2022/11/10 09:18:01;;;;;;;14.80;8.10;;;;;;;;;;5058832;28;20456;-62
2022/11/10 09:20:28;;;;;;;14.27;8.80;;;;;;;;;;5055383;28;20453;-63
2022/11/10 09:22:55;;;;;;;11.40;8.67;;;;;;;;;;5055363;28;20465;-62
2022/11/10 09:25:23;;;;;;;13.60;9.13;;;;;;;;;;5055972;28;20442;-64
2022/11/10 09:27:50;;;;;;;13.93;8.07;;;;;;;;;;5055399;28;20452;-64
2022/11/10 09:30:18;;;;;;;14.63;8.10;;;;;;;;;;5055068;28;21061;-65
2022/11/10 09:32:46;;;;;;;13.43;7.93;;;;;;;;;;5055323;28;20491;-64
2022/11/10 09:35:13;;;;;;;13.17;7.40;;;;;;;;;;5055677;28;20455;-65
2022/11/10 09:37:40;;;;;;;12.80;6.67;;;;;;;;;;5055806;28;20940;-62
2022/11/10 09:40:10;;;;;;;10.53;6.50;;;;;;;;;;5055245;28;20447;-63
2022/11/10 09:42:39;;;;;;;10.37;7.00;;;;;;;;;;5055289;28;20658;-63
2022/11/10 09:45:09;;;;;;;8.50;6.90;;;;;;;;;;5054948;28;20444;-63
2022/11/10 09:47:42;;;;;;;12.10;7.53;;;;;;;;;;5055133;28;20450;-63
2022/11/10 09:50:15;;;;;;;11.13;6.73;;;;;;;;;;5056899;28;20468;-68
2022/11/10 09:52:43;;;;;;;8.90;6.40;;;;;;;;;;5054655;28;20438;-68
2022/11/10 09:55:19;;;;;;;14.07;6.80;;;;;;;;;;5055020;28;20474;-67
2022/11/10 09:57:46;;;;;;;10.17;6.07;;;;;;;;;;5054855;28;20902;-67
2022/11/10 10:00:14;;;;;;;7.63;6.07;;;;;;;;;;5055568;28;20454;-69
2022/11/10 10:02:45;;;;;;;10.13;6.70;;;;;;;;;;5054616;28;20489;-68
2022/11/10 10:05:29;;;;;;;8.13;6.40;;;;;;;;;;5054959;28;20528;-67
2022/11/10 10:08:01;;;;;;;10.43;5.33;;;;;;;;;;5055221;28;20444;-68
2022/11/10 10:10:31;;;;;;;16.53;6.20;;;;;;;;;;5054644;28;20471;-67
2022/11/10 10:13:04;;;;;;;12.70;6.63;;;;;;;;;;5055658;28;20434;-67
2022/11/10 10:15:35;;;;;;;14.83;6.10;;;;;;;;;;5054805;28;20446;-67
2022/11/10 10:18:09;;;;;;;12.23;5.60;;;;;;;;;;5055269;28;20435;-67
2022/11/10 10:20:46;;;;;;;14.53;6.00;;;;;;;;;;5055178;28;20474;-65
2022/11/10 10:23:17;;;;;;;15.63;5.83;;;;;;;;;;5054930;28;20433;-66
2022/11/10 10:25:46;;;;;;;12.67;5.77;;;;;;;;;;5054893;28;20433;-66
2022/11/10 10:28:16;;;;;;;14.00;5.70;;;;;;;;;;5056953;28;20461;-63
2022/11/10 10:30:44;;;;;;;11.20;5.13;;;;;;;;;;5054259;28;20488;-62
2022/11/10 10:33:17;;;;;;;10.93;5.00;;;;;;;;;;5054501;28;20448;-64
2022/11/10 10:35:45;;;;;;;10.13;4.90;;;;;;;;;;5054642;28;20424;-65
2022/11/10 10:38:17;;;;;;;12.50;4.93;;;;;;;;;;5054258;28;20458;-64
2022/11/10 10:40:44;;;;;;;10.70;4.40;;;;;;;;;;5053871;28;21005;-64
2022/11/10 10:43:12;;;;;;;15.80;5.30;;;;;;;;;;5054588;28;20449;-65
2022/11/10 10:45:42;;;;;;;9.40;4.20;;;;;;;;;;5054492;28;20978;-62
2022/11/10 10:48:24;;;;;;;7.60;3.93;;;;;;;;;;5054580;28;20460;-64
2022/11/10 10:50:54;;;;;;;9.53;4.57;;;;;;;;;;5050854;28;20523;-64
2022/11/10 10:53:24;;;;;;;7.27;3.87;;;;;;;;;;5054022;28;20835;-64
2022/11/10 10:55:58;;;;;;;10.53;4.77;;;;;;;;;;5053614;28;20970;-65
2022/11/10 10:58:27;;;;;;;15.87;4.30;;;;;;;;;;5054015;28;20506;-64
2022/11/10 11:00:56;;;;;;;11.13;4.20;;;;;;;;;;5053684;28;20467;-63
2022/11/10 11:03:28;;;;;;;7.30;4.10;;;;;;;;;;5053432;28;20449;-63
2022/11/10 11:06:02;;;;;;;10.60;3.70;;;;;;;;;;5053515;28;20474;-62
2022/11/10 11:08:29;;;;;;;10.43;4.30;;;;;;;;;;5053893;28;20459;-63
2022/11/10 11:13:40;;;;;;;6.97;3.13;;;;;;;;;;5046860;28;20451;-62
2022/11/10 11:16:11;;;;;;;5.50;2.97;;;;;;;;;;5053263;28;20456;-64
2022/11/10 11:18:39;;;;;;;7.73;3.97;;;;;;;;;;5054742;28;20436;-63
2022/11/10 11:21:16;;;;;;;9.13;3.20;;;;;;;;;;5053395;28;20469;-64
2022/11/10 11:23:58;;;;;;;9.60;4.00;;;;;;;;;;5053148;28;20434;-64
2022/11/10 11:26:30;;;;;;;13.10;3.87;;;;;;;;;;5053566;28;20437;-64
2022/11/10 11:29:03;;;;;;;12.90;4.03;;;;;;;;;;5053122;28;20431;-64
2022/11/10 11:31:34;;;;;;;8.57;3.70;;;;;;;;;;5053644;28;20544;-64
2022/11/10 11:34:05;;;;;;;12.90;3.37;;;;;;;;;;5053413;28;20438;-64
2022/11/10 11:36:40;;;;;;;11.10;3.20;;;;;;;;;;5053568;28;20429;-64
2022/11/10 11:39:12;;;;;;;6.33;3.03;;;;;;;;;;5053610;28;20432;-64
2022/11/10 11:41:48;;;;;;;6.40;4.17;;;;;;;;;;5053454;28;20522;-64
2022/11/10 11:44:25;;;;;;;17.70;4.30;;;;;;;;;;5053321;28;20445;-64
2022/11/10 11:46:55;;;;;;;10.40;3.40;;;;;;;;;;5053157;28;20494;-64
2022/11/10 11:49:33;;;;;;;6.27;3.00;;;;;;;;;;5052532;28;20536;-64
2022/11/10 11:52:03;;;;;;;7.60;2.97;;;;;;;;;;5053258;28;20521;-63
2022/11/10 11:54:39;;;;;;;12.20;2.77;;;;;;;;;;5052788;28;20929;-64
2022/11/10 11:57:13;;;;;;;7.80;2.63;;;;;;;;;;5053433;28;20439;-64
2022/11/10 11:59:53;;;;;;;9.37;3.17;;;;;;;;;;5053263;28;20448;-63
2022/11/10 12:02:35;;;;;;;7.13;3.10;;;;;;;;;;5053213;28;20475;-64
2022/11/10 12:05:15;;;;;;;8.33;2.60;;;;;;;;;;5053022;28;20783;-64
2022/11/10 12:07:51;;;;;;;4.57;2.33;;;;;;;;;;5061331;28;20451;-66
2022/11/10 12:10:23;;;;;;;10.93;2.63;;;;;;;;;;5053030;28;20428;-66
2022/11/10 12:13:03;;;;;;;11.50;2.70;;;;;;;;;;5052794;28;20437;-63
2022/11/10 12:15:33;;;;;;;11.13;2.80;;;;;;;;;;5053371;28;20429;-69
2022/11/10 12:18:07;;;;;;;8.67;2.77;;;;;;;;;;5052671;28;20441;-69
2022/11/10 12:20:42;;;;;;;5.57;2.33;;;;;;;;;;5052440;28;20434;-68
2022/11/10 12:23:14;;;;;;;7.60;2.43;;;;;;;;;;5053011;28;20434;-68
2022/11/10 12:25:45;;;;;;;6.87;2.60;;;;;;;;;;5052612;28;20429;-67
2022/11/10 12:28:16;;;;;;;4.67;2.10;;;;;;;;;;5052675;28;20430;-68
2022/11/10 12:30:46;;;;;;;9.60;2.60;;;;;;;;;;5058225;28;20491;-65
2022/11/10 12:33:18;;;;;;;7.80;2.67;;;;;;;;;;5060828;28;20426;-64
2022/11/10 12:35:46;;;;;;;5.97;2.50;;;;;;;;;;5057723;28;20425;-65
2022/11/10 12:38:17;;;;;;;8.67;2.70;;;;;;;;;;5057975;28;20815;-64
2022/11/10 12:40:46;;;;;;;6.37;2.20;;;;;;;;;;5058480;28;20464;-65
2022/11/10 12:43:16;;;;;;;7.00;2.50;;;;;;;;;;5057601;28;20536;-65
2022/11/10 12:45:49;;;;;;;7.40;3.47;;;;;;;;;;5058058;28;20453;-64
2022/11/10 12:48:18;;;;;;;8.03;2.03;;;;;;;;;;5057712;28;20435;-64
2022/11/10 12:50:49;;;;;;;7.53;2.20;;;;;;;;;;5056612;28;20491;-64
2022/11/10 12:53:22;;;;;;;8.27;2.37;;;;;;;;;;5056978;28;20524;-64
2022/11/10 12:55:51;;;;;;;9.40;2.57;;;;;;;;;;5056779;28;20494;-64
2022/11/10 12:58:19;;;;;;;2.77;1.97;;;;;;;;;;5056497;28;20458;-64
2022/11/10 13:00:55;;;;;;;7.27;3.30;;;;;;;;;;5056261;28;20468;-63
2022/11/10 13:03:27;;;;;;;6.73;2.40;;;;;;;;;;5056148;28;20440;-64
2022/11/10 13:05:58;;;;;;;6.30;2.13;;;;;;;;;;5056062;28;20449;-65
2022/11/10 13:08:31;;;;;;;7.33;2.53;;;;;;;;;;5056605;28;20971;-64
2022/11/10 13:11:02;;;;;;;8.90;2.40;;;;;;;;;;5055997;28;20480;-64
2022/11/10 13:13:29;;;;;;;8.33;2.17;;;;;;;;;;5056352;28;20432;-63
2022/11/10 13:15:57;;;;;;;7.13;2.97;;;;;;;;;;5056468;28;20448;-63
2022/11/10 13:18:43;;;;;;;8.30;1.80;;;;;;;;;;5056158;28;20460;-64
2022/11/10 13:21:10;;;;;;;4.33;2.00;;;;;;;;;;5055680;28;20480;-65
2022/11/10 13:23:54;;;;;;;3.87;1.47;;;;;;;;;;5056396;28;20451;-64
2022/11/10 13:26:36;;;;;;;10.20;2.20;;;;;;;;;;5041187;28;20822;-65
2022/11/10 13:29:20;;;;;;;13.50;2.40;;;;;;;;;;5055398;28;20451;-66
2022/11/10 13:31:51;;;;;;;8.83;2.37;;;;;;;;;;5056396;28;20489;-63
2022/11/10 13:34:32;;;;;;;6.30;2.07;;;;;;;;;;5056403;28;20452;-64
2022/11/10 13:36:59;;;;;;;6.63;1.97;;;;;;;;;;5056436;28;20444;-66
2022/11/10 13:39:28;;;;;;;5.10;2.00;;;;;;;;;;5055901;28;20450;-63
2022/11/10 13:41:59;;;;;;;12.03;3.07;;;;;;;;;;5055209;28;20467;-63
2022/11/10 13:44:28;;;;;;;6.67;2.03;;;;;;;;;;5055991;28;20432;-64
2022/11/10 13:47:33;;;;;;;6.10;2.07;;;;;;;;;;5055711;28;20455;-65
2022/11/10 13:50:03;;;;;;;9.70;2.67;;;;;;;;;;5038234;28;20535;-64
2022/11/10 13:52:36;;;;;;;6.33;2.40;;;;;;;;;;5055392;28;21014;-64
2022/11/10 13:55:18;;;;;;;10.23;3.40;;;;;;;;;;5055707;28;20439;-63
2022/11/10 13:57:56;;;;;;;11.00;2.03;;;;;;;;;;5053082;28;20452;-65
2022/11/10 14:00:26;;;;;;;6.20;3.20;;;;;;;;;;5055443;28;20424;-65
2022/11/10 14:02:57;;;;;;;5.67;2.00;;;;;;;;;;5055441;28;20461;-64
2022/11/10 14:05:43;;;;;;;10.13;3.67;;;;;;;;;;5055365;28;20436;-64
2022/11/10 14:08:12;;;;;;;6.57;2.40;;;;;;;;;;5055653;28;20531;-64
2022/11/10 14:10:41;;;;;;;6.93;2.33;;;;;;;;;;5056820;28;20970;-63
2022/11/10 14:13:12;;;;;;;5.83;2.47;;;;;;;;;;5057041;28;20483;-64
2022/11/10 14:15:42;;;;;;;4.80;2.50;;;;;;;;;;5056978;28;20790;-66
2022/11/10 14:18:17;;;;;;;6.23;2.30;;;;;;;;;;5056084;28;20447;-64
2022/11/10 14:20:44;;;;;;;5.43;2.03;;;;;;;;;;5055821;28;20476;-63
2022/11/10 14:23:16;;;;;;;4.30;2.00;;;;;;;;;;5056315;28;20539;-66
2022/11/10 14:25:44;;;;;;;9.57;2.27;;;;;;;;;;5057174;28;20455;-64
2022/11/10 14:28:25;;;;;;;8.40;3.10;;;;;;;;;;5057341;28;20931;-64
2022/11/10 14:30:54;;;;;;;9.10;1.90;;;;;;;;;;5058305;28;20520;-64
2022/11/10 14:33:22;;;;;;;7.77;2.20;;;;;;;;;;5059270;28;20444;-63
2022/11/10 14:35:51;;;;;;;7.10;2.33;;;;;;;;;;5058990;28;20529;-65
2022/11/10 14:38:19;;;;;;;11.63;2.90;;;;;;;;;;5057214;28;20441;-64
2022/11/10 14:40:46;;;;;;;8.07;2.13;;;;;;;;;;5058226;28;20460;-64
2022/11/10 14:43:27;;;;;;;5.13;2.30;;;;;;;;;;5057246;28;20814;-63
2022/11/10 14:45:55;;;;;;;6.90;2.60;;;;;;;;;;5057557;28;20586;-64
2022/11/10 14:48:23;;;;;;;7.10;2.30;;;;;;;;;;5058802;28;20441;-65
2022/11/10 14:50:50;;;;;;;9.43;2.57;;;;;;;;;;5055770;28;20461;-64
2022/11/10 14:53:19;;;;;;;12.53;2.50;;;;;;;;;;5054492;28;20487;-64
2022/11/10 14:55:47;;;;;;;5.60;2.30;;;;;;;;;;5055112;28;20471;-64
2022/11/10 14:58:17;;;;;;;7.27;2.30;;;;;;;;;;5056726;28;20940;-65
2022/11/10 15:00:45;;;;;;;7.67;2.50;;;;;;;;;;5054665;28;20467;-66
2022/11/10 15:03:17;;;;;;;8.43;2.47;;;;;;;;;;5054859;28;20445;-63
2022/11/10 15:05:44;;;;;;;4.63;2.30;;;;;;;;;;5055873;28;20444;-63
2022/11/10 15:08:15;;;;;;;6.67;2.70;;;;;;;;;;5053950;28;20448;-63